EmailTwitter


Observations de surface / États-Unis / KJFK (74486)

Régions: Québec | Canada | États-Unis | Europe | France | UK | Elsewhere
Station
Affichage
Infos & localisation pour KJFK (74486) | Aide pour décoder les METARs

Observations prises le 2017-03-24 à 11H51 UTC à NEW YORK/JF KENN, NY (KJFK)

Etat du ciel: partiellement nuageux.

Température: 3.3 Celsius

Point de rosée: -0.6 Celsius

Humidité relative: 76%

Facteur vent: -1.

Vents: Sud-ouest à 22 km/h ou 12 noeuds.

Pression au niveau moyen de la mer: 103.27 kilopascals.

Calage altimétrique: 103.28 kilopascals ou 30.50 pouces de mercure.

Visibilité horizontale: 10.00 milles terrestres ou 16.00 kilomètres.

Hauteur du plafond: 3353 mètres ( 11000 pieds ).

Observation METAR:

KJFK 241151Z 21012KT 10SM BKN110 BKN220 03/M01 A3050 RMK AO2 SLP327 T00331006

10033 20000 58002=